sensor_id;sensor_type;location;lat;lon;timestamp;P1;durP1;ratioP1;P2;durP2;ratioP2
4096;SDS011;2062;50.694;7.246;2023-08-20T00:00:19;11.40;;;5.60;;
4096;SDS011;2062;50.694;7.246;2023-08-20T00:02:47;10.10;;;4.97;;
4096;SDS011;2062;50.694;7.246;2023-08-20T00:05:20;9.73;;;5.18;;
4096;SDS011;2062;50.694;7.246;2023-08-20T00:07:47;9.35;;;4.80;;
4096;SDS011;2062;50.694;7.246;2023-08-20T00:10:15;9.68;;;4.72;;
4096;SDS011;2062;50.694;7.246;2023-08-20T00:12:42;7.63;;;4.57;;
4096;SDS011;2062;50.694;7.246;2023-08-20T00:15:09;7.83;;;5.13;;
4096;SDS011;2062;50.694;7.246;2023-08-20T00:17:37;8.30;;;4.80;;
4096;SDS011;2062;50.694;7.246;2023-08-20T00:20:05;8.15;;;4.80;;
4096;SDS011;2062;50.694;7.246;2023-08-20T00:22:35;10.45;;;4.70;;
4096;SDS011;2062;50.694;7.246;2023-08-20T00:25:02;9.20;;;4.80;;
4096;SDS011;2062;50.694;7.246;2023-08-20T00:27:31;7.87;;;4.40;;
4096;SDS011;2062;50.694;7.246;2023-08-20T00:29:58;8.10;;;4.65;;
4096;SDS011;2062;50.694;7.246;2023-08-20T00:32:25;9.40;;;4.82;;
4096;SDS011;2062;50.694;7.246;2023-08-20T00:34:52;8.95;;;4.70;;
4096;SDS011;2062;50.694;7.246;2023-08-20T00:37:19;8.70;;;4.80;;
4096;SDS011;2062;50.694;7.246;2023-08-20T00:39:46;7.60;;;4.53;;
4096;SDS011;2062;50.694;7.246;2023-08-20T00:42:13;8.75;;;4.90;;
4096;SDS011;2062;50.694;7.246;2023-08-20T00:44:41;8.20;;;4.60;;
4096;SDS011;2062;50.694;7.246;2023-08-20T00:47:10;9.13;;;5.30;;
4096;SDS011;2062;50.694;7.246;2023-08-20T00:49:38;10.05;;;4.82;;
4096;SDS011;2062;50.694;7.246;2023-08-20T00:52:07;7.83;;;4.50;;
4096;SDS011;2062;50.694;7.246;2023-08-20T00:54:35;7.65;;;4.30;;
4096;SDS011;2062;50.694;7.246;2023-08-20T00:57:02;8.20;;;4.88;;
4096;SDS011;2062;50.694;7.246;2023-08-20T00:59:30;8.07;;;4.68;;
4096;SDS011;2062;50.694;7.246;2023-08-20T01:02:00;8.13;;;4.80;;
4096;SDS011;2062;50.694;7.246;2023-08-20T01:04:27;9.77;;;4.70;;
4096;SDS011;2062;50.694;7.246;2023-08-20T01:06:59;8.95;;;5.00;;
4096;SDS011;2062;50.694;7.246;2023-08-20T01:09:33;8.20;;;5.05;;
4096;SDS011;2062;50.694;7.246;2023-08-20T01:12:08;8.45;;;5.07;;
4096;SDS011;2062;50.694;7.246;2023-08-20T01:14:36;7.47;;;4.78;;
4096;SDS011;2062;50.694;7.246;2023-08-20T01:17:04;10.20;;;4.87;;
4096;SDS011;2062;50.694;7.246;2023-08-20T01:19:31;10.65;;;5.57;;
4096;SDS011;2062;50.694;7.246;2023-08-20T01:22:05;11.13;;;5.90;;
4096;SDS011;2062;50.694;7.246;2023-08-20T01:24:46;9.02;;;5.30;;
4096;SDS011;2062;50.694;7.246;2023-08-20T01:27:28;13.63;;;5.70;;
4096;SDS011;2062;50.694;7.246;2023-08-20T01:30:07;9.87;;;5.43;;
4096;SDS011;2062;50.694;7.246;2023-08-20T01:32:35;9.52;;;5.22;;
4096;SDS011;2062;50.694;7.246;2023-08-20T01:35:03;10.40;;;5.82;;
4096;SDS011;2062;50.694;7.246;2023-08-20T01:37:30;11.02;;;5.53;;
4096;SDS011;2062;50.694;7.246;2023-08-20T01:39:57;10.98;;;6.30;;
4096;SDS011;2062;50.694;7.246;2023-08-20T01:42:23;10.03;;;5.73;;
4096;SDS011;2062;50.694;7.246;2023-08-20T01:44:50;12.32;;;5.93;;
4096;SDS011;2062;50.694;7.246;2023-08-20T01:47:18;11.00;;;6.10;;
4096;SDS011;2062;50.694;7.246;2023-08-20T01:49:45;10.90;;;6.07;;
4096;SDS011;2062;50.694;7.246;2023-08-20T01:52:12;8.48;;;5.38;;
4096;SDS011;2062;50.694;7.246;2023-08-20T01:54:39;11.47;;;6.10;;
4096;SDS011;2062;50.694;7.246;2023-08-20T01:57:05;10.45;;;5.38;;
4096;SDS011;2062;50.694;7.246;2023-08-20T01:59:32;10.50;;;5.22;;
4096;SDS011;2062;50.694;7.246;2023-08-20T02:01:59;10.07;;;5.50;;
4096;SDS011;2062;50.694;7.246;2023-08-20T02:04:27;9.30;;;4.93;;
4096;SDS011;2062;50.694;7.246;2023-08-20T02:06:54;10.73;;;5.07;;
4096;SDS011;2062;50.694;7.246;2023-08-20T02:09:21;10.13;;;4.90;;
4096;SDS011;2062;50.694;7.246;2023-08-20T02:11:47;10.13;;;5.32;;
4096;SDS011;2062;50.694;7.246;2023-08-20T02:14:14;8.70;;;4.88;;
4096;SDS011;2062;50.694;7.246;2023-08-20T02:16:41;10.10;;;5.32;;
4096;SDS011;2062;50.694;7.246;2023-08-20T02:19:08;9.17;;;4.93;;
4096;SDS011;2062;50.694;7.246;2023-08-20T02:21:36;11.00;;;5.00;;
4096;SDS011;2062;50.694;7.246;2023-08-20T02:24:04;8.48;;;4.78;;
4096;SDS011;2062;50.694;7.246;2023-08-20T02:26:31;9.80;;;5.25;;
4096;SDS011;2062;50.694;7.246;2023-08-20T02:28:58;8.13;;;5.22;;
4096;SDS011;2062;50.694;7.246;2023-08-20T02:31:25;8.53;;;4.17;;
4096;SDS011;2062;50.694;7.246;2023-08-20T02:33:51;8.40;;;4.70;;
4096;SDS011;2062;50.694;7.246;2023-08-20T02:36:18;10.90;;;5.38;;
4096;SDS011;2062;50.694;7.246;2023-08-20T02:38:47;9.20;;;4.65;;
4096;SDS011;2062;50.694;7.246;2023-08-20T02:41:13;8.88;;;4.50;;
4096;SDS011;2062;50.694;7.246;2023-08-20T02:43:40;8.83;;;4.27;;
4096;SDS011;2062;50.694;7.246;2023-08-20T02:46:07;8.65;;;4.80;;
4096;SDS011;2062;50.694;7.246;2023-08-20T02:48:34;8.82;;;4.85;;
4096;SDS011;2062;50.694;7.246;2023-08-20T02:51:00;9.18;;;4.45;;
4096;SDS011;2062;50.694;7.246;2023-08-20T02:53:27;8.05;;;4.22;;
4096;SDS011;2062;50.694;7.246;2023-08-20T02:55:56;8.13;;;4.80;;
4096;SDS011;2062;50.694;7.246;2023-08-20T02:58:23;8.68;;;4.55;;
4096;SDS011;2062;50.694;7.246;2023-08-20T03:00:49;7.97;;;4.18;;
4096;SDS011;2062;50.694;7.246;2023-08-20T03:03:16;7.30;;;4.20;;
4096;SDS011;2062;50.694;7.246;2023-08-20T03:05:43;7.75;;;4.20;;
4096;SDS011;2062;50.694;7.246;2023-08-20T03:08:10;10.03;;;4.50;;
4096;SDS011;2062;50.694;7.246;2023-08-20T03:10:37;8.32;;;4.40;;
4096;SDS011;2062;50.694;7.246;2023-08-20T03:13:05;10.02;;;4.80;;
4096;SDS011;2062;50.694;7.246;2023-08-20T03:15:31;8.50;;;4.10;;
4096;SDS011;2062;50.694;7.246;2023-08-20T03:17:58;8.27;;;4.70;;
4096;SDS011;2062;50.694;7.246;2023-08-20T03:20:25;8.30;;;4.47;;
4096;SDS011;2062;50.694;7.246;2023-08-20T03:22:53;7.70;;;4.63;;
4096;SDS011;2062;50.694;7.246;2023-08-20T03:25:20;7.30;;;4.88;;
4096;SDS011;2062;50.694;7.246;2023-08-20T03:27:46;10.32;;;4.90;;
4096;SDS011;2062;50.694;7.246;2023-08-20T03:30:15;8.65;;;4.30;;
4096;SDS011;2062;50.694;7.246;2023-08-20T03:32:42;8.57;;;4.80;;
4096;SDS011;2062;50.694;7.246;2023-08-20T03:35:08;8.43;;;4.60;;
4096;SDS011;2062;50.694;7.246;2023-08-20T03:37:35;10.20;;;5.03;;
4096;SDS011;2062;50.694;7.246;2023-08-20T03:40:02;12.25;;;5.10;;
4096;SDS011;2062;50.694;7.246;2023-08-20T03:42:30;9.13;;;5.40;;
4096;SDS011;2062;50.694;7.246;2023-08-20T03:44:56;9.13;;;5.63;;
4096;SDS011;2062;50.694;7.246;2023-08-20T03:47:24;11.30;;;5.60;;
4096;SDS011;2062;50.694;7.246;2023-08-20T03:49:51;10.52;;;6.22;;
4096;SDS011;2062;50.694;7.246;2023-08-20T03:52:18;9.15;;;5.68;;
4096;SDS011;2062;50.694;7.246;2023-08-20T03:54:45;10.05;;;6.00;;
4096;SDS011;2062;50.694;7.246;2023-08-20T03:57:12;9.10;;;5.70;;
4096;SDS011;2062;50.694;7.246;2023-08-20T03:59:39;10.90;;;6.32;;
4096;SDS011;2062;50.694;7.246;2023-08-20T04:02:05;10.57;;;5.93;;
4096;SDS011;2062;50.694;7.246;2023-08-20T04:04:34;11.90;;;6.22;;
4096;SDS011;2062;50.694;7.246;2023-08-20T04:07:02;10.30;;;6.20;;
4096;SDS011;2062;50.694;7.246;2023-08-20T04:09:28;10.77;;;6.63;;
4096;SDS011;2062;50.694;7.246;2023-08-20T04:11:56;12.55;;;6.80;;
4096;SDS011;2062;50.694;7.246;2023-08-20T04:14:23;11.45;;;6.93;;
4096;SDS011;2062;50.694;7.246;2023-08-20T04:16:50;11.93;;;7.30;;
4096;SDS011;2062;50.694;7.246;2023-08-20T04:19:17;12.68;;;8.02;;
4096;SDS011;2062;50.694;7.246;2023-08-20T04:21:45;14.53;;;8.07;;
4096;SDS011;2062;50.694;7.246;2023-08-20T04:24:12;12.80;;;7.75;;
4096;SDS011;2062;50.694;7.246;2023-08-20T04:26:39;13.30;;;8.07;;
4096;SDS011;2062;50.694;7.246;2023-08-20T04:29:06;12.20;;;7.53;;
4096;SDS011;2062;50.694;7.246;2023-08-20T04:31:33;13.60;;;8.05;;
4096;SDS011;2062;50.694;7.246;2023-08-20T04:33:59;15.13;;;9.10;;
4096;SDS011;2062;50.694;7.246;2023-08-20T04:36:26;14.73;;;8.15;;
4096;SDS011;2062;50.694;7.246;2023-08-20T04:38:55;15.60;;;8.57;;
4096;SDS011;2062;50.694;7.246;2023-08-20T04:41:21;13.18;;;7.95;;
4096;SDS011;2062;50.694;7.246;2023-08-20T04:43:48;13.80;;;8.40;;
4096;SDS011;2062;50.694;7.246;2023-08-20T04:46:15;15.93;;;8.93;;
4096;SDS011;2062;50.694;7.246;2023-08-20T04:48:43;13.90;;;8.00;;
4096;SDS011;2062;50.694;7.246;2023-08-20T04:51:10;14.75;;;8.82;;
4096;SDS011;2062;50.694;7.246;2023-08-20T04:53:36;13.07;;;8.30;;
4096;SDS011;2062;50.694;7.246;2023-08-20T04:56:05;15.52;;;9.35;;
4096;SDS011;2062;50.694;7.246;2023-08-20T04:58:31;14.67;;;8.27;;
4096;SDS011;2062;50.694;7.246;2023-08-20T05:00:58;14.25;;;8.43;;
4096;SDS011;2062;50.694;7.246;2023-08-20T05:03:25;13.95;;;8.27;;
4096;SDS011;2062;50.694;7.246;2023-08-20T05:05:52;14.73;;;7.93;;
4096;SDS011;2062;50.694;7.246;2023-08-20T05:08:18;13.02;;;7.82;;
4096;SDS011;2062;50.694;7.246;2023-08-20T05:10:45;12.63;;;7.80;;
4096;SDS011;2062;50.694;7.246;2023-08-20T05:13:13;14.20;;;8.20;;
4096;SDS011;2062;50.694;7.246;2023-08-20T05:15:40;15.02;;;8.57;;
4096;SDS011;2062;50.694;7.246;2023-08-20T05:18:07;14.65;;;7.75;;
4096;SDS011;2062;50.694;7.246;2023-08-20T05:20:34;14.93;;;7.93;;
4096;SDS011;2062;50.694;7.246;2023-08-20T05:23:00;13.60;;;8.20;;
4096;SDS011;2062;50.694;7.246;2023-08-20T05:25:29;14.90;;;8.25;;
4096;SDS011;2062;50.694;7.246;2023-08-20T05:27:55;15.13;;;7.65;;
4096;SDS011;2062;50.694;7.246;2023-08-20T05:30:23;15.27;;;7.72;;
4096;SDS011;2062;50.694;7.246;2023-08-20T05:32:50;12.50;;;7.32;;
4096;SDS011;2062;50.694;7.246;2023-08-20T05:35:17;15.23;;;7.97;;
4096;SDS011;2062;50.694;7.246;2023-08-20T05:37:44;16.27;;;7.85;;
4096;SDS011;2062;50.694;7.246;2023-08-20T05:40:10;15.82;;;8.15;;
4096;SDS011;2062;50.694;7.246;2023-08-20T05:42:37;14.20;;;8.00;;
4096;SDS011;2062;50.694;7.246;2023-08-20T05:45:04;16.95;;;8.73;;
4096;SDS011;2062;50.694;7.246;2023-08-20T05:47:33;18.43;;;10.13;;
4096;SDS011;2062;50.694;7.246;2023-08-20T05:50:00;17.70;;;9.95;;
4096;SDS011;2062;50.694;7.246;2023-08-20T05:52:26;19.02;;;9.32;;
4096;SDS011;2062;50.694;7.246;2023-08-20T05:54:53;17.10;;;9.70;;
4096;SDS011;2062;50.694;7.246;2023-08-20T05:57:20;17.98;;;9.68;;
4096;SDS011;2062;50.694;7.246;2023-08-20T05:59:47;18.83;;;10.63;;
4096;SDS011;2062;50.694;7.246;2023-08-20T06:02:15;18.17;;;10.57;;
4096;SDS011;2062;50.694;7.246;2023-08-20T06:04:44;20.48;;;11.80;;
4096;SDS011;2062;50.694;7.246;2023-08-20T06:07:11;22.00;;;11.32;;
4096;SDS011;2062;50.694;7.246;2023-08-20T06:09:37;23.05;;;12.13;;
4096;SDS011;2062;50.694;7.246;2023-08-20T06:12:04;20.83;;;11.30;;
4096;SDS011;2062;50.694;7.246;2023-08-20T06:14:32;21.15;;;11.48;;
4096;SDS011;2062;50.694;7.246;2023-08-20T06:16:58;21.33;;;11.75;;
4096;SDS011;2062;50.694;7.246;2023-08-20T06:19:25;21.83;;;12.48;;
4096;SDS011;2062;50.694;7.246;2023-08-20T06:21:53;20.27;;;11.70;;
4096;SDS011;2062;50.694;7.246;2023-08-20T06:24:20;18.97;;;11.57;;
4096;SDS011;2062;50.694;7.246;2023-08-20T06:26:47;18.98;;;11.38;;
4096;SDS011;2062;50.694;7.246;2023-08-20T06:29:14;21.45;;;11.43;;
4096;SDS011;2062;50.694;7.246;2023-08-20T06:31:40;19.73;;;11.48;;
4096;SDS011;2062;50.694;7.246;2023-08-20T06:34:07;18.85;;;11.15;;
4096;SDS011;2062;50.694;7.246;2023-08-20T06:36:34;19.80;;;11.47;;
4096;SDS011;2062;50.694;7.246;2023-08-20T06:39:03;18.55;;;11.50;;
4096;SDS011;2062;50.694;7.246;2023-08-20T06:41:30;19.50;;;11.82;;
4096;SDS011;2062;50.694;7.246;2023-08-20T06:43:57;19.33;;;11.25;;
4096;SDS011;2062;50.694;7.246;2023-08-20T06:46:24;21.38;;;11.35;;
4096;SDS011;2062;50.694;7.246;2023-08-20T06:48:50;20.47;;;12.17;;
4096;SDS011;2062;50.694;7.246;2023-08-20T06:51:19;19.05;;;12.00;;
4096;SDS011;2062;50.694;7.246;2023-08-20T06:53:46;20.52;;;12.32;;
4096;SDS011;2062;50.694;7.246;2023-08-20T06:56:14;23.35;;;13.25;;
4096;SDS011;2062;50.694;7.246;2023-08-20T06:58:42;19.40;;;12.00;;
4096;SDS011;2062;50.694;7.246;2023-08-20T07:01:09;20.93;;;12.00;;
4096;SDS011;2062;50.694;7.246;2023-08-20T07:03:37;18.60;;;11.52;;
4096;SDS011;2062;50.694;7.246;2023-08-20T07:06:05;18.70;;;11.98;;
4096;SDS011;2062;50.694;7.246;2023-08-20T07:08:32;20.75;;;12.98;;
4096;SDS011;2062;50.694;7.246;2023-08-20T07:10:59;21.63;;;13.48;;
4096;SDS011;2062;50.694;7.246;2023-08-20T07:13:27;24.17;;;12.73;;
4096;SDS011;2062;50.694;7.246;2023-08-20T07:15:54;19.85;;;11.82;;
4096;SDS011;2062;50.694;7.246;2023-08-20T07:18:21;17.95;;;11.88;;
4096;SDS011;2062;50.694;7.246;2023-08-20T07:20:48;21.55;;;11.80;;
4096;SDS011;2062;50.694;7.246;2023-08-20T07:23:16;17.17;;;10.90;;
4096;SDS011;2062;50.694;7.246;2023-08-20T07:25:42;18.77;;;10.70;;
4096;SDS011;2062;50.694;7.246;2023-08-20T07:28:10;18.38;;;10.73;;
4096;SDS011;2062;50.694;7.246;2023-08-20T07:30:38;17.25;;;10.55;;
4096;SDS011;2062;50.694;7.246;2023-08-20T07:33:05;17.98;;;10.45;;
4096;SDS011;2062;50.694;7.246;2023-08-20T07:35:33;17.95;;;10.73;;
4096;SDS011;2062;50.694;7.246;2023-08-20T07:38:00;17.83;;;10.17;;
4096;SDS011;2062;50.694;7.246;2023-08-20T07:40:27;18.30;;;11.15;;
4096;SDS011;2062;50.694;7.246;2023-08-20T07:42:54;17.27;;;10.95;;
4096;SDS011;2062;50.694;7.246;2023-08-20T07:45:21;18.63;;;11.13;;
4096;SDS011;2062;50.694;7.246;2023-08-20T07:47:49;16.80;;;11.23;;
4096;SDS011;2062;50.694;7.246;2023-08-20T07:50:16;15.53;;;10.00;;
4096;SDS011;2062;50.694;7.246;2023-08-20T07:52:43;15.60;;;10.23;;
4096;SDS011;2062;50.694;7.246;2023-08-20T07:55:10;16.60;;;10.43;;
4096;SDS011;2062;50.694;7.246;2023-08-20T07:57:36;17.25;;;10.18;;
4096;SDS011;2062;50.694;7.246;2023-08-20T08:00:04;14.63;;;10.23;;
4096;SDS011;2062;50.694;7.246;2023-08-20T08:02:31;15.73;;;10.00;;
4096;SDS011;2062;50.694;7.246;2023-08-20T08:04:59;13.65;;;9.10;;
4096;SDS011;2062;50.694;7.246;2023-08-20T08:07:26;17.60;;;10.88;;
4096;SDS011;2062;50.694;7.246;2023-08-20T08:09:53;16.20;;;10.05;;
4096;SDS011;2062;50.694;7.246;2023-08-20T08:12:20;16.40;;;10.60;;
4096;SDS011;2062;50.694;7.246;2023-08-20T08:14:47;16.67;;;10.60;;
4096;SDS011;2062;50.694;7.246;2023-08-20T08:17:14;17.17;;;9.65;;
4096;SDS011;2062;50.694;7.246;2023-08-20T08:19:40;14.38;;;9.23;;
4096;SDS011;2062;50.694;7.246;2023-08-20T08:22:09;15.40;;;10.10;;
4096;SDS011;2062;50.694;7.246;2023-08-20T08:24:35;13.45;;;9.65;;
4096;SDS011;2062;50.694;7.246;2023-08-20T08:27:02;13.47;;;9.83;;
4096;SDS011;2062;50.694;7.246;2023-08-20T08:29:29;16.38;;;8.88;;
4096;SDS011;2062;50.694;7.246;2023-08-20T08:31:56;12.35;;;8.52;;
4096;SDS011;2062;50.694;7.246;2023-08-20T08:34:22;12.30;;;7.20;;
4096;SDS011;2062;50.694;7.246;2023-08-20T08:36:49;11.52;;;7.53;;
4096;SDS011;2062;50.694;7.246;2023-08-20T08:39:17;12.77;;;6.77;;
4096;SDS011;2062;50.694;7.246;2023-08-20T08:41:44;11.07;;;7.28;;
4096;SDS011;2062;50.694;7.246;2023-08-20T08:44:16;10.95;;;6.75;;
4096;SDS011;2062;50.694;7.246;2023-08-20T08:46:43;11.20;;;7.25;;
4096;SDS011;2062;50.694;7.246;2023-08-20T08:49:11;12.05;;;8.27;;
4096;SDS011;2062;50.694;7.246;2023-08-20T08:51:38;11.37;;;7.70;;
4096;SDS011;2062;50.694;7.246;2023-08-20T08:54:08;11.32;;;6.97;;
4096;SDS011;2062;50.694;7.246;2023-08-20T08:56:36;10.95;;;7.40;;
4096;SDS011;2062;50.694;7.246;2023-08-20T08:59:03;10.38;;;6.88;;
4096;SDS011;2062;50.694;7.246;2023-08-20T09:01:30;9.82;;;6.05;;
4096;SDS011;2062;50.694;7.246;2023-08-20T09:03:57;9.70;;;6.57;;
4096;SDS011;2062;50.694;7.246;2023-08-20T09:06:24;9.50;;;6.40;;
4096;SDS011;2062;50.694;7.246;2023-08-20T09:08:55;9.77;;;5.95;;
4096;SDS011;2062;50.694;7.246;2023-08-20T09:11:34;10.30;;;6.25;;
4096;SDS011;2062;50.694;7.246;2023-08-20T09:14:02;9.98;;;5.82;;
4096;SDS011;2062;50.694;7.246;2023-08-20T09:16:30;8.97;;;5.90;;
4096;SDS011;2062;50.694;7.246;2023-08-20T09:18:58;9.63;;;5.82;;
4096;SDS011;2062;50.694;7.246;2023-08-20T09:21:26;10.35;;;6.18;;
4096;SDS011;2062;50.694;7.246;2023-08-20T09:23:55;10.02;;;5.75;;
4096;SDS011;2062;50.694;7.246;2023-08-20T09:26:22;7.65;;;5.55;;
4096;SDS011;2062;50.694;7.246;2023-08-20T09:28:49;8.93;;;5.20;;
4096;SDS011;2062;50.694;7.246;2023-08-20T09:31:17;9.13;;;4.65;;
4096;SDS011;2062;50.694;7.246;2023-08-20T09:33:53;7.40;;;4.50;;
4096;SDS011;2062;50.694;7.246;2023-08-20T09:36:29;7.32;;;4.50;;
4096;SDS011;2062;50.694;7.246;2023-08-20T09:38:57;9.45;;;5.28;;
4096;SDS011;2062;50.694;7.246;2023-08-20T09:41:24;9.00;;;5.20;;
4096;SDS011;2062;50.694;7.246;2023-08-20T09:43:52;7.85;;;4.60;;
4096;SDS011;2062;50.694;7.246;2023-08-20T09:46:25;8.00;;;4.78;;
4096;SDS011;2062;50.694;7.246;2023-08-20T09:48:53;8.20;;;5.15;;
4096;SDS011;2062;50.694;7.246;2023-08-20T09:51:24;7.40;;;4.88;;
4096;SDS011;2062;50.694;7.246;2023-08-20T09:53:55;8.30;;;5.10;;
4096;SDS011;2062;50.694;7.246;2023-08-20T09:56:29;7.93;;;4.60;;
4096;SDS011;2062;50.694;7.246;2023-08-20T09:58:57;6.88;;;4.85;;
4096;SDS011;2062;50.694;7.246;2023-08-20T10:01:26;7.35;;;4.72;;
4096;SDS011;2062;50.694;7.246;2023-08-20T10:03:54;6.93;;;5.00;;
4096;SDS011;2062;50.694;7.246;2023-08-20T10:06:20;7.30;;;5.10;;
4096;SDS011;2062;50.694;7.246;2023-08-20T10:08:49;9.43;;;5.35;;
4096;SDS011;2062;50.694;7.246;2023-08-20T10:11:17;7.90;;;4.93;;
4096;SDS011;2062;50.694;7.246;2023-08-20T10:13:43;8.07;;;5.00;;
4096;SDS011;2062;50.694;7.246;2023-08-20T10:16:11;7.65;;;4.70;;
4096;SDS011;2062;50.694;7.246;2023-08-20T10:18:40;8.83;;;5.70;;
4096;SDS011;2062;50.694;7.246;2023-08-20T10:21:07;8.07;;;5.13;;
4096;SDS011;2062;50.694;7.246;2023-08-20T10:23:34;8.30;;;4.82;;
4096;SDS011;2062;50.694;7.246;2023-08-20T10:26:07;9.30;;;5.30;;
4096;SDS011;2062;50.694;7.246;2023-08-20T10:28:35;7.68;;;5.03;;
4096;SDS011;2062;50.694;7.246;2023-08-20T10:31:03;9.07;;;5.30;;
4096;SDS011;2062;50.694;7.246;2023-08-20T10:33:31;8.27;;;5.07;;
4096;SDS011;2062;50.694;7.246;2023-08-20T10:36:07;9.70;;;5.63;;
4096;SDS011;2062;50.694;7.246;2023-08-20T10:38:35;7.22;;;4.93;;
4096;SDS011;2062;50.694;7.246;2023-08-20T10:41:05;8.23;;;5.25;;
4096;SDS011;2062;50.694;7.246;2023-08-20T10:43:33;7.20;;;4.87;;
4096;SDS011;2062;50.694;7.246;2023-08-20T10:46:06;9.18;;;5.28;;
4096;SDS011;2062;50.694;7.246;2023-08-20T10:48:35;8.45;;;5.00;;
4096;SDS011;2062;50.694;7.246;2023-08-20T10:51:08;8.13;;;5.00;;
4096;SDS011;2062;50.694;7.246;2023-08-20T10:53:36;7.85;;;5.00;;
4096;SDS011;2062;50.694;7.246;2023-08-20T10:56:12;7.00;;;4.83;;
4096;SDS011;2062;50.694;7.246;2023-08-20T10:58:41;8.20;;;5.13;;
4096;SDS011;2062;50.694;7.246;2023-08-20T11:01:12;7.07;;;5.03;;
4096;SDS011;2062;50.694;7.246;2023-08-20T11:03:44;9.10;;;5.38;;
4096;SDS011;2062;50.694;7.246;2023-08-20T11:06:12;8.90;;;5.22;;
4096;SDS011;2062;50.694;7.246;2023-08-20T11:08:39;7.57;;;5.00;;
4096;SDS011;2062;50.694;7.246;2023-08-20T11:11:07;8.30;;;4.80;;
4096;SDS011;2062;50.694;7.246;2023-08-20T11:13:35;7.97;;;5.28;;
4096;SDS011;2062;50.694;7.246;2023-08-20T11:16:02;7.03;;;5.00;;
4096;SDS011;2062;50.694;7.246;2023-08-20T11:18:30;7.82;;;5.15;;
4096;SDS011;2062;50.694;7.246;2023-08-20T11:20:58;7.50;;;4.90;;
4096;SDS011;2062;50.694;7.246;2023-08-20T11:23:27;7.47;;;4.75;;
4096;SDS011;2062;50.694;7.246;2023-08-20T11:25:54;9.18;;;5.47;;
4096;SDS011;2062;50.694;7.246;2023-08-20T11:28:21;9.30;;;5.47;;
4096;SDS011;2062;50.694;7.246;2023-08-20T11:30:48;8.50;;;5.82;;
4096;SDS011;2062;50.694;7.246;2023-08-20T11:33:16;8.97;;;5.90;;
4096;SDS011;2062;50.694;7.246;2023-08-20T11:35:43;10.25;;;5.20;;
4096;SDS011;2062;50.694;7.246;2023-08-20T11:38:10;7.35;;;5.47;;
4096;SDS011;2062;50.694;7.246;2023-08-20T11:40:39;7.57;;;5.28;;
4096;SDS011;2062;50.694;7.246;2023-08-20T11:43:06;8.48;;;5.38;;
4096;SDS011;2062;50.694;7.246;2023-08-20T11:45:33;7.23;;;5.17;;
4096;SDS011;2062;50.694;7.246;2023-08-20T11:48:10;7.78;;;5.50;;
4096;SDS011;2062;50.694;7.246;2023-08-20T11:50:37;7.97;;;4.85;;
4096;SDS011;2062;50.694;7.246;2023-08-20T11:53:05;10.02;;;5.30;;
4096;SDS011;2062;50.694;7.246;2023-08-20T11:55:33;7.38;;;5.43;;
4096;SDS011;2062;50.694;7.246;2023-08-20T11:58:01;7.63;;;5.03;;
4096;SDS011;2062;50.694;7.246;2023-08-20T12:00:29;9.30;;;5.28;;
4096;SDS011;2062;50.694;7.246;2023-08-20T12:02:58;8.10;;;5.50;;
4096;SDS011;2062;50.694;7.246;2023-08-20T12:05:28;7.97;;;5.00;;
4096;SDS011;2062;50.694;7.246;2023-08-20T12:07:55;7.35;;;5.05;;
4096;SDS011;2062;50.694;7.246;2023-08-20T12:10:24;7.80;;;5.50;;
4096;SDS011;2062;50.694;7.246;2023-08-20T12:12:51;7.93;;;5.25;;
4096;SDS011;2062;50.694;7.246;2023-08-20T12:15:20;7.60;;;5.35;;
4096;SDS011;2062;50.694;7.246;2023-08-20T12:17:56;7.97;;;5.50;;
4096;SDS011;2062;50.694;7.246;2023-08-20T12:20:29;7.18;;;5.25;;
4096;SDS011;2062;50.694;7.246;2023-08-20T12:22:58;7.13;;;4.87;;
4096;SDS011;2062;50.694;7.246;2023-08-20T12:25:26;7.80;;;5.25;;
4096;SDS011;2062;50.694;7.246;2023-08-20T12:27:53;6.80;;;5.07;;
4096;SDS011;2062;50.694;7.246;2023-08-20T12:30:21;7.78;;;4.72;;
4096;SDS011;2062;50.694;7.246;2023-08-20T12:32:51;7.97;;;5.25;;
4096;SDS011;2062;50.694;7.246;2023-08-20T12:35:18;9.80;;;5.30;;
4096;SDS011;2062;50.694;7.246;2023-08-20T12:37:45;7.32;;;5.05;;
4096;SDS011;2062;50.694;7.246;2023-08-20T12:40:12;6.93;;;4.82;;
4096;SDS011;2062;50.694;7.246;2023-08-20T12:42:38;7.35;;;4.80;;
4096;SDS011;2062;50.694;7.246;2023-08-20T12:45:06;7.95;;;5.45;;
4096;SDS011;2062;50.694;7.246;2023-08-20T12:47:34;7.83;;;5.20;;
4096;SDS011;2062;50.694;7.246;2023-08-20T12:50:01;7.60;;;4.90;;
4096;SDS011;2062;50.694;7.246;2023-08-20T12:52:29;7.32;;;5.15;;
4096;SDS011;2062;50.694;7.246;2023-08-20T12:54:56;8.93;;;5.30;;
4096;SDS011;2062;50.694;7.246;2023-08-20T12:57:23;7.22;;;5.05;;
4096;SDS011;2062;50.694;7.246;2023-08-20T12:59:50;7.80;;;5.20;;
4096;SDS011;2062;50.694;7.246;2023-08-20T13:02:17;7.03;;;5.00;;
4096;SDS011;2062;50.694;7.246;2023-08-20T13:04:46;7.55;;;5.00;;
4096;SDS011;2062;50.694;7.246;2023-08-20T13:07:15;7.72;;;5.78;;
4096;SDS011;2062;50.694;7.246;2023-08-20T13:09:42;7.75;;;5.53;;
4096;SDS011;2062;50.694;7.246;2023-08-20T13:12:10;8.07;;;5.30;;
4096;SDS011;2062;50.694;7.246;2023-08-20T13:14:38;8.75;;;4.90;;
4096;SDS011;2062;50.694;7.246;2023-08-20T13:17:06;7.88;;;5.18;;
4096;SDS011;2062;50.694;7.246;2023-08-20T13:19:35;7.15;;;5.35;;
4096;SDS011;2062;50.694;7.246;2023-08-20T13:22:03;8.38;;;4.97;;
4096;SDS011;2062;50.694;7.246;2023-08-20T13:24:31;7.10;;;5.10;;
4096;SDS011;2062;50.694;7.246;2023-08-20T13:26:58;7.45;;;5.18;;
4096;SDS011;2062;50.694;7.246;2023-08-20T13:29:24;7.95;;;5.40;;
4096;SDS011;2062;50.694;7.246;2023-08-20T13:31:52;7.47;;;5.07;;
4096;SDS011;2062;50.694;7.246;2023-08-20T13:34:18;9.00;;;5.65;;
4096;SDS011;2062;50.694;7.246;2023-08-20T13:36:45;9.03;;;5.53;;
4096;SDS011;2062;50.694;7.246;2023-08-20T13:39:14;8.68;;;5.35;;
4096;SDS011;2062;50.694;7.246;2023-08-20T13:41:42;8.27;;;5.30;;
4096;SDS011;2062;50.694;7.246;2023-08-20T13:44:09;7.70;;;5.60;;
4096;SDS011;2062;50.694;7.246;2023-08-20T13:46:36;8.30;;;6.05;;
4096;SDS011;2062;50.694;7.246;2023-08-20T13:49:03;9.20;;;6.30;;
4096;SDS011;2062;50.694;7.246;2023-08-20T13:51:29;9.07;;;6.28;;
4096;SDS011;2062;50.694;7.246;2023-08-20T13:53:57;8.75;;;6.00;;
4096;SDS011;2062;50.694;7.246;2023-08-20T13:56:25;8.93;;;6.10;;
4096;SDS011;2062;50.694;7.246;2023-08-20T13:58:52;8.88;;;6.55;;
4096;SDS011;2062;50.694;7.246;2023-08-20T14:01:19;8.43;;;6.20;;
4096;SDS011;2062;50.694;7.246;2023-08-20T14:03:46;8.18;;;6.18;;
4096;SDS011;2062;50.694;7.246;2023-08-20T14:06:14;9.20;;;6.68;;
4096;SDS011;2062;50.694;7.246;2023-08-20T14:08:41;7.93;;;6.47;;
4096;SDS011;2062;50.694;7.246;2023-08-20T14:11:08;8.65;;;7.10;;
4096;SDS011;2062;50.694;7.246;2023-08-20T14:13:36;8.93;;;6.83;;
4096;SDS011;2062;50.694;7.246;2023-08-20T14:16:03;9.65;;;7.03;;
4096;SDS011;2062;50.694;7.246;2023-08-20T14:18:30;9.45;;;7.20;;
4096;SDS011;2062;50.694;7.246;2023-08-20T14:20:57;11.15;;;7.30;;
4096;SDS011;2062;50.694;7.246;2023-08-20T14:23:24;9.80;;;7.40;;
4096;SDS011;2062;50.694;7.246;2023-08-20T14:25:50;10.73;;;7.37;;
4096;SDS011;2062;50.694;7.246;2023-08-20T14:28:19;9.50;;;7.07;;
4096;SDS011;2062;50.694;7.246;2023-08-20T14:30:48;9.55;;;7.03;;
4096;SDS011;2062;50.694;7.246;2023-08-20T14:33:15;11.55;;;7.38;;
4096;SDS011;2062;50.694;7.246;2023-08-20T14:35:42;9.00;;;6.57;;
4096;SDS011;2062;50.694;7.246;2023-08-20T14:38:10;10.70;;;7.90;;
4096;SDS011;2062;50.694;7.246;2023-08-20T14:40:37;9.77;;;7.65;;
4096;SDS011;2062;50.694;7.246;2023-08-20T14:43:05;10.40;;;7.88;;
4096;SDS011;2062;50.694;7.246;2023-08-20T14:45:32;11.82;;;8.15;;
4096;SDS011;2062;50.694;7.246;2023-08-20T14:48:03;10.65;;;8.23;;
4096;SDS011;2062;50.694;7.246;2023-08-20T14:50:30;9.83;;;8.10;;
4096;SDS011;2062;50.694;7.246;2023-08-20T14:52:57;9.88;;;7.57;;
4096;SDS011;2062;50.694;7.246;2023-08-20T14:55:24;10.95;;;8.18;;
4096;SDS011;2062;50.694;7.246;2023-08-20T14:57:51;11.10;;;8.02;;
4096;SDS011;2062;50.694;7.246;2023-08-20T15:00:18;11.73;;;9.10;;
4096;SDS011;2062;50.694;7.246;2023-08-20T15:02:47;11.53;;;8.77;;
4096;SDS011;2062;50.694;7.246;2023-08-20T15:05:16;11.50;;;7.97;;
4096;SDS011;2062;50.694;7.246;2023-08-20T15:07:43;10.65;;;8.43;;
4096;SDS011;2062;50.694;7.246;2023-08-20T15:10:10;9.93;;;8.15;;